createdAt,value
2018-07-25T00:04:56.622Z,2.75
2018-07-25T00:10:01.889Z,2.47
2018-07-25T00:15:07.158Z,2.75
2018-07-25T00:20:11.239Z,2.98
2018-07-25T00:25:15.282Z,3.00
2018-07-25T00:30:19.098Z,2.92
2018-07-25T00:35:23.018Z,2.90
2018-07-25T00:40:26.724Z,2.95
2018-07-25T00:45:30.489Z,3.17
2018-07-25T00:50:34.196Z,3.27
2018-07-25T00:55:38.189Z,2.87
2018-07-25T01:17:04.202Z,3.30
2018-07-25T01:22:08.115Z,2.95
2018-07-25T01:27:11.992Z,3.60
2018-07-25T01:32:16.082Z,3.40
2018-07-25T01:37:19.998Z,3.55
2018-07-25T01:42:24.269Z,3.08
2018-07-25T01:47:28.310Z,2.95
2018-07-25T01:52:32.065Z,3.27
2018-07-25T01:57:35.625Z,2.90
2018-07-25T02:02:39.287Z,3.22
2018-07-25T02:07:42.989Z,2.80
2018-07-25T02:12:46.708Z,3.05
2018-07-25T02:17:50.523Z,3.10
2018-07-25T02:22:54.465Z,3.00
2018-07-25T02:27:58.450Z,3.30
2018-07-25T02:33:02.776Z,3.10
2018-07-25T02:38:06.935Z,2.83
2018-07-25T02:43:11.922Z,4.60
2018-07-25T02:48:16.382Z,3.70
2018-07-25T02:53:21.026Z,3.70
2018-07-25T02:58:25.591Z,3.17
2018-07-25T03:03:29.457Z,3.30
2018-07-25T03:08:33.885Z,3.37
2018-07-25T03:13:38.011Z,3.12
2018-07-25T03:18:42.060Z,3.70
2018-07-25T03:23:46.902Z,3.10
2018-07-25T03:28:50.902Z,3.50
2018-07-25T03:33:55.200Z,3.15
2018-07-25T03:38:59.318Z,3.72
2018-07-25T03:44:03.658Z,3.20
2018-07-25T03:49:07.893Z,3.35
2018-07-25T03:54:12.024Z,2.90
2018-07-25T03:59:15.936Z,3.55
2018-07-25T04:04:20.160Z,3.25
2018-07-25T04:09:24.540Z,3.12
2018-07-25T04:14:29.849Z,3.00
2018-07-25T04:19:35.464Z,3.40
2018-07-25T04:24:40.992Z,3.55
2018-07-25T04:29:45.970Z,4.03
2018-07-25T04:34:50.792Z,3.70
2018-07-25T04:39:55.771Z,3.85
2018-07-25T04:45:06.882Z,4.08
2018-07-25T05:08:26.478Z,3.98
2018-07-25T05:13:32.324Z,3.90
2018-07-25T05:18:37.816Z,3.83
2018-07-25T05:23:41.991Z,3.90
2018-07-25T05:28:45.877Z,4.08
2018-07-25T05:33:51.725Z,3.47
2018-07-25T05:38:56.354Z,4.33
2018-07-25T05:44:02.268Z,3.80
2018-07-25T05:49:06.505Z,3.65
2018-07-25T05:54:11.083Z,3.45
2018-07-25T05:59:16.816Z,3.50
2018-07-25T06:04:21.979Z,3.40
2018-07-25T06:09:26.957Z,3.40
2018-07-25T06:14:31.167Z,3.60
2018-07-25T06:19:35.637Z,3.42
2018-07-25T06:24:40.578Z,3.30
2018-07-25T06:29:44.938Z,3.33
2018-07-25T06:34:50.273Z,2.90
2018-07-25T06:39:56.043Z,3.22
2018-07-25T06:50:17.115Z,3.13
2018-07-25T06:55:22.886Z,3.08
2018-07-25T07:00:27.360Z,3.27
2018-07-25T07:05:31.848Z,3.35
2018-07-25T07:10:37.220Z,3.00
2018-07-25T07:15:42.766Z,3.10
2018-07-25T07:20:48.626Z,3.05
2018-07-25T07:25:54.151Z,3.27
2018-07-25T07:30:59.688Z,2.70
2018-07-25T07:36:06.326Z,3.10
2018-07-25T07:41:10.745Z,2.80
2018-07-25T07:46:15.347Z,2.58
2018-07-25T07:51:20.771Z,2.40
2018-07-25T07:56:25.683Z,2.85
2018-07-25T08:01:30.038Z,2.87
2018-07-25T08:06:35.122Z,2.77
2018-07-25T08:11:39.714Z,2.47
2018-07-25T08:16:44.298Z,2.65
2018-07-25T08:21:48.391Z,2.20
2018-07-25T08:26:53.059Z,2.90
2018-07-25T08:31:57.618Z,2.22
2018-07-25T08:37:02.239Z,2.37
2018-07-25T08:42:06.450Z,2.70
2018-07-25T08:47:11.269Z,2.22
2018-07-25T08:52:15.518Z,2.33
2018-07-25T08:57:20.796Z,2.70
2018-07-25T09:02:27.191Z,2.92
2018-07-25T09:07:31.492Z,2.05
2018-07-25T09:12:36.880Z,2.10
2018-07-25T09:17:41.248Z,2.58
2018-07-25T09:22:46.043Z,2.60
2018-07-25T09:27:51.095Z,2.80
2018-07-25T09:32:57.900Z,2.70
2018-07-25T09:38:02.880Z,2.50
2018-07-25T09:43:06.959Z,2.37
2018-07-25T09:48:11.334Z,2.60
2018-07-25T09:53:15.664Z,3.30
2018-07-25T09:58:21.088Z,2.98
2018-07-25T10:03:25.279Z,3.52
2018-07-25T10:08:29.630Z,7.20
2018-07-25T10:13:33.921Z,2.42
2018-07-25T10:18:38.156Z,3.75
2018-07-25T10:23:42.630Z,3.12
2018-07-25T10:28:46.830Z,3.77
2018-07-25T10:33:50.807Z,3.27
2018-07-25T10:38:54.854Z,3.10
2018-07-25T10:43:59.227Z,2.40
2018-07-25T10:49:03.425Z,2.25
2018-07-25T10:54:08.210Z,2.65
2018-07-25T10:59:13.438Z,2.50
2018-07-25T11:04:18.360Z,2.60
2018-07-25T11:09:23.403Z,2.60
2018-07-25T11:14:31.899Z,2.05
2018-07-25T11:19:36.583Z,2.17
2018-07-25T11:24:42.565Z,2.33
2018-07-25T11:29:47.040Z,2.05
2018-07-25T11:34:54.361Z,2.30
2018-07-25T11:40:04.764Z,2.35
2018-07-25T11:45:12.441Z,2.02
2018-07-25T11:50:24.143Z,1.93
2018-07-25T11:55:29.624Z,2.05
2018-07-25T12:00:37.124Z,1.75
2018-07-25T12:05:44.651Z,2.33
2018-07-25T12:10:49.605Z,1.55
2018-07-25T12:15:55.367Z,2.30
2018-07-25T12:21:01.085Z,1.60
2018-07-25T12:26:05.322Z,3.10
2018-07-25T12:31:09.463Z,1.65
2018-07-25T12:36:13.629Z,2.60
2018-07-25T12:41:17.631Z,1.27
2018-07-25T12:46:21.542Z,1.57
2018-07-25T12:51:25.719Z,1.10
2018-07-25T12:56:29.669Z,1.60
2018-07-25T13:01:34.659Z,1.20
2018-07-25T13:06:38.959Z,1.40
2018-07-25T13:11:43.406Z,1.20
2018-07-25T13:16:48.790Z,1.10
2018-07-25T13:21:54.719Z,1.15
2018-07-25T13:26:58.731Z,1.30
2018-07-25T13:32:03.225Z,1.25
2018-07-25T13:37:07.783Z,1.17
2018-07-25T13:42:12.044Z,1.62
2018-07-25T13:47:16.637Z,1.35
2018-07-25T13:52:21.064Z,1.42
2018-07-25T13:57:25.608Z,1.47
2018-07-25T14:02:37.643Z,1.40
2018-07-25T14:07:42.615Z,1.42
2018-07-25T14:12:47.580Z,1.50
2018-07-25T14:17:51.794Z,1.47
2018-07-25T14:22:58.129Z,1.70
2018-07-25T14:28:02.448Z,1.75
2018-07-25T14:33:07.872Z,1.27
2018-07-25T14:38:16.067Z,1.65
2018-07-25T14:43:21.153Z,1.50
2018-07-25T14:48:25.524Z,1.60
2018-07-25T14:53:30.143Z,1.67
2018-07-25T14:58:34.465Z,1.37
2018-07-25T15:03:39.232Z,1.45
2018-07-25T15:25:13.395Z,1.37
2018-07-25T15:30:23.006Z,1.50
2018-07-25T15:35:29.157Z,1.40
2018-07-25T15:40:33.772Z,1.60
2018-07-25T15:45:38.618Z,1.60
2018-07-25T15:50:42.860Z,1.70
2018-07-25T15:55:48.692Z,1.07
2018-07-25T16:00:53.923Z,1.32
2018-07-25T16:05:58.920Z,1.70
2018-07-25T16:11:03.585Z,1.45
2018-07-25T16:16:08.295Z,1.40
2018-07-25T16:21:13.573Z,1.50
2018-07-25T16:26:18.031Z,1.55
2018-07-25T16:31:22.538Z,1.22
2018-07-25T16:36:26.827Z,1.40
2018-07-25T16:41:31.054Z,1.55
2018-07-25T16:46:35.032Z,1.30
2018-07-25T16:51:39.326Z,1.30
2018-07-25T16:56:43.590Z,1.40
2018-07-25T17:01:47.680Z,1.22
2018-07-25T17:06:52.524Z,1.30
2018-07-25T17:11:56.898Z,1.67
2018-07-25T17:17:01.029Z,1.25
2018-07-25T17:22:05.562Z,1.30
2018-07-25T17:27:10.338Z,1.30
2018-07-25T17:32:15.173Z,1.70
2018-07-25T17:37:19.892Z,1.50
2018-07-25T17:42:24.227Z,2.80
2018-07-25T17:47:28.553Z,2.20
2018-07-25T17:52:33.010Z,2.20
2018-07-25T17:57:37.067Z,1.90
2018-07-25T18:02:41.731Z,1.30
2018-07-25T18:07:46.493Z,1.22
2018-07-25T18:12:52.952Z,1.72
2018-07-25T18:17:57.171Z,1.47
2018-07-25T18:23:02.470Z,1.20
2018-07-25T18:28:07.099Z,1.35
2018-07-25T18:33:11.924Z,1.70
2018-07-25T18:38:16.274Z,1.55
2018-07-25T18:43:20.805Z,1.40
2018-07-25T18:48:24.977Z,5.50
2018-07-25T18:53:29.578Z,1.40
2018-07-25T18:58:34.314Z,1.20
2018-07-25T19:03:38.818Z,1.20
2018-07-25T19:08:43.356Z,1.55
2018-07-25T19:15:33.355Z,1.45
2018-07-25T19:20:37.610Z,1.42
2018-07-25T19:25:43.209Z,2.12
2018-07-25T19:30:48.302Z,2.10
2018-07-25T19:35:53.493Z,1.57
2018-07-25T19:40:57.678Z,1.42
2018-07-25T19:46:01.782Z,1.87
2018-07-25T19:51:05.678Z,2.02
2018-07-25T19:56:09.890Z,2.05
2018-07-25T20:01:13.967Z,1.92
2018-07-25T20:06:18.473Z,1.70
2018-07-25T20:11:22.913Z,1.80
2018-07-25T20:16:27.076Z,2.22
2018-07-25T20:21:31.858Z,1.67
2018-07-25T20:26:36.112Z,1.87
2018-07-25T20:31:40.179Z,1.87
2018-07-25T20:36:44.522Z,2.00
2018-07-25T20:41:50.799Z,1.90
2018-07-25T20:46:55.708Z,2.10
2018-07-25T20:51:59.871Z,3.27
2018-07-25T20:57:04.073Z,2.27
2018-07-25T21:02:07.787Z,3.30
2018-07-25T21:07:11.491Z,2.90
2018-07-25T21:12:15.502Z,2.00
2018-07-25T21:17:19.150Z,1.82
2018-07-25T21:22:23.557Z,1.72
2018-07-25T21:27:27.463Z,1.75
2018-07-25T21:32:32.046Z,1.95
2018-07-25T21:37:36.104Z,1.90
2018-07-25T21:42:40.094Z,2.08
2018-07-25T21:47:44.094Z,2.00
2018-07-25T21:52:48.810Z,2.00
2018-07-25T21:57:52.875Z,2.17
2018-07-25T22:02:56.894Z,2.25
2018-07-25T22:08:01.337Z,1.90
2018-07-25T22:13:05.874Z,2.10
2018-07-25T22:18:09.926Z,2.10
2018-07-25T22:23:15.231Z,2.02
2018-07-25T22:28:19.684Z,2.00
2018-07-25T22:33:23.554Z,2.17
2018-07-25T22:38:27.926Z,2.10
2018-07-25T22:43:31.715Z,2.08
2018-07-25T22:48:35.840Z,2.30
2018-07-25T22:53:39.715Z,2.20
2018-07-25T22:58:43.630Z,2.35
2018-07-25T23:03:47.649Z,2.10
2018-07-25T23:08:52.052Z,2.37
2018-07-25T23:13:56.665Z,2.10
2018-07-25T23:19:00.242Z,2.25
2018-07-25T23:24:04.362Z,2.30
2018-07-25T23:29:08.665Z,2.70
2018-07-25T23:34:12.678Z,2.85
2018-07-25T23:39:16.727Z,2.60
2018-07-25T23:44:20.645Z,2.62
2018-07-25T23:49:24.661Z,2.52
2018-07-25T23:54:28.641Z,2.67
2018-07-25T23:59:32.345Z,2.83
